Nearby METAR Reports

 

KOJC - Olathe/Executive, Kansas, USA
Distance from station: N 14mi, 23km
Updated: Thu, 22-Aug-2019 2:06am CDT
Light rain, Overcast
Light rain, Overcast
 Wind from calm
Wind: Calm
Temperature: 72°F , 22°C
Dew Point: 70°F , 21°C
Humidity: 94%
Barometer: 30.01 inHg , 1016.3 hPa
Summary: Light rain
Clouds: Overcast
Visibility: 10 miles , 16 km
Cloud details: Partly cloudy 2700 ft
Mostly cloudy 3700 ft
Overcast 8000 ft
2019/08/22 07:06 KOJC 220706Z AUTO 00000KT 10SM -RA SCT027 BKN037 OVC080 22/21 A3001 RMK AO2 LTG DSNT SE-W RAB02 P0000 T02220211
KIXD - Olathe/Industria, Kansas, USA
Distance from station: NW 15mi, 25km
Updated: Thu, 22-Aug-2019 2:18am CDT
Light rain, Mist, Overcast
Light rain, Mist, Overcast
 Wind from E
Wind: E 6 mph , 9 km/h
Temperature: 73°F , 23°C
Dew Point: 70°F , 21°C
Humidity: 89%
Barometer: 29.99 inHg , 1015.6 hPa
Summary: Light rain, Mist
Clouds: Overcast
Visibility: 6 miles , 10 km
Cloud details: Partly cloudy 1600 ft
Mostly cloudy 3600 ft
Overcast 10000 ft
2019/08/22 07:18 KIXD 220718Z AUTO 09005KT 6SM -RA BR SCT016 BKN036 OVC100 23/21 A2999 RMK AO2 LTG DSNT SE-W TSB0658E13 P0006 T02280211 $
 
KLXT - Lees Summit Muni, Missouri, USA
Distance from station: NE 28mi, 46km
Updated: Thu, 22-Aug-2019 2:12am CDT
Overcast
Overcast
 Wind from E
Wind: E 6 mph , 9 km/h
Temperature: 73°F , 23°C
Dew Point: 72°F , 22°C
Humidity: 94%
Barometer: 29.99 inHg , 1015.6 hPa
Clouds: Overcast
Visibility: 10 miles , 16 km
Cloud details: Mostly cloudy 600 ft
Mostly cloudy 7000 ft
Overcast 9000 ft
2019/08/22 07:12 KLXT 220712Z AUTO 08005KT 10SM BKN006 BKN070 OVC090 23/22 A2999 RMK AO2 LTG DSNT SE-SW RAE04 CIG 005V012 P0000 T02280217
KMKC - Kansas City/Dntn, Missouri, USA
Distance from station: N 33mi, 53km
Updated: Thu, 22-Aug-2019 1:54am CDT
Mostly cloudy
Mostly cloudy
 Wind from ENE
Wind: ENE 7 mph , 11 km/h
Temperature: 75°F , 24°C
Dew Point: 70°F , 21°C
Humidity: 83%
Barometer: 29.98 inHg , 1015.2 hPa
Clouds: Mostly cloudy
Visibility: 10 miles , 16 km
Cloud details: Mostly cloudy 1100 ft
Mostly cloudy 3100 ft
2019/08/22 06:54 KMKC 220654Z 07006KT 10SM BKN011 BKN031 24/21 A2998 RMK AO2 LTG DSNT SE-SW SLP146 T02390206
 
KLWC - Lawrence, Kansas, USA
Distance from station: NW 38mi, 61km
Updated: Thu, 22-Aug-2019 2:00am CDT
Mostly cloudy
Mostly cloudy
 Wind from calm
Wind: Calm
Temperature: 73°F , 23°C
Dew Point: 70°F , 21°C
Humidity: 89%
Barometer: 29.99 inHg , 1015.6 hPa
Clouds: Mostly cloudy
Visibility: 10 miles , 16 km
Cloud details: Few Clouds 1700 ft
Mostly cloudy 3100 ft
Mostly cloudy 7500 ft
2019/08/22 07:00 KLWC 220700Z AUTO 00000KT 10SM FEW017 BKN031 BKN075 23/21 A2999 RMK AO2 LTG DSNT SE AND SW T02330211
KFOE - Topeka/Forbes, Kansas, USA
Distance from station: WNW 43mi, 70km
Updated: Thu, 22-Aug-2019 1:53am CDT
Overcast
Overcast
 Wind from ENE
Wind: ENE 3 mph , 6 km/h
Temperature: 73°F , 23°C
Dew Point: 70°F , 21°C
Humidity: 89%
Barometer: 30.00 inHg , 1015.9 hPa
Clouds: Overcast
Visibility: 10 miles , 16 km
Cloud details: Mostly cloudy 600 ft
Mostly cloudy 1200 ft
Overcast 2300 ft
2019/08/22 06:53 KFOE 220653Z AUTO 07003KT 10SM BKN006 BKN012 OVC023 23/21 A3000 RMK AO2 LTG DSNT E-SW RAE18 CIG 005V009 SLP149 P0005 T02330211
 
KMCI - Kansas City/Intl, Missouri, USA
Distance from station: N 45mi, 73km
Updated: Thu, 22-Aug-2019 1:53am CDT
Overcast
Overcast
 Wind from ENE
Wind: ENE 8 mph , 13 km/h
Temperature: 72°F , 22°C
Dew Point: 70°F , 21°C
Humidity: 94%
Barometer: 30.01 inHg , 1016.3 hPa
Clouds: Overcast
Visibility: 10 miles , 16 km
Cloud details: Mostly cloudy 1300 ft
Mostly cloudy 2600 ft
Overcast 7500 ft
2019/08/22 06:53 KMCI 220653Z 06007KT 10SM BKN013 BKN026 OVC075 22/21 A3001 RMK AO2 SLP150 T02220211
KRCM - Warrensburg Skyh, Missouri, USA
Distance from station: ENE 49mi, 80km
Updated: Thu, 22-Aug-2019 2:15am CDT
Light rain, Mostly cloudy
Light rain, Mostly cloudy
 Wind from calm
Wind: Calm
Temperature: 70°F , 21°C
Dew Point: 68°F , 20°C
Humidity: 94%
Barometer: 29.98 inHg , 1015.2 hPa
Summary: Light rain
Clouds: Mostly cloudy
Visibility: 10 miles , 16 km
Cloud details: Partly cloudy 1100 ft
Mostly cloudy 8500 ft
Mostly cloudy 11000 ft
2019/08/22 07:15 KRCM 220715Z AUTO 00000KT 10SM -RA SCT011 BKN085 BKN110 21/20 A2998 RMK AO2 LTG DSNT SW